Terminal Aerodrome Forecast
Issued by NWS

Home | Current Version | Previous Version | Text Only | Print | Product List | Glossary On
Versions: 1 2 3 4 5 6 7 8 9 10 11 12 13
000
FTUS45 KRIW 230537
TAFJAC
TAF
KJAC 230537Z 2306/2406 21010KT 1SM -SN OVC018
     FM231300 20008KT 4SM -SN OVC025
     FM232200 35006KT 2SM -SN OVC030
     FM240300 01010G15KT 4SM -SN OVC030
      AMD LTD TO CLD VIS AND WIND=

USA.gov is the U.S. government's official web portal to all federal, state and local government web resources and services.